createdAt,value
2022-09-01T00:00:05.463Z,19.2
2022-09-01T00:15:02.208Z,19.2
2022-09-01T00:30:05.408Z,19.2
2022-09-01T00:45:03.288Z,19.2
2022-09-01T01:00:05.549Z,19.2
2022-09-01T01:15:04.477Z,19.1
2022-09-01T01:30:05.876Z,19.1
2022-09-01T01:45:03.875Z,19.1
2022-09-01T02:00:05.336Z,19.1
2022-09-01T02:15:02.345Z,19.1
2022-09-01T02:30:05.373Z,19.0
2022-09-01T02:45:02.620Z,19.0
2022-09-01T03:00:06.151Z,19
2022-09-01T03:15:05.537Z,19
2022-09-01T03:30:04.039Z,19
2022-09-01T03:45:03.167Z,19
2022-09-01T04:00:06.344Z,18.9
2022-09-01T04:15:03.040Z,18.9
2022-09-01T04:30:04.851Z,18.9
2022-09-01T04:45:09.884Z,18.9
2022-09-01T05:00:06.179Z,18.9
2022-09-01T05:15:04.305Z,18.9
2022-09-01T05:30:08.026Z,18.9
2022-09-01T05:45:05.278Z,18.9
2022-09-01T06:00:08.694Z,18.9
2022-09-01T06:15:03.577Z,19.0
2022-09-01T06:30:09.848Z,19.1
2022-09-01T06:45:03.710Z,19.2
2022-09-01T07:00:10.957Z,19.3
2022-09-01T07:30:07.849Z,19.5
2022-09-01T07:45:27.272Z,19.5
2022-09-01T08:00:08.642Z,19.6
2022-09-01T08:15:13.125Z,19.8
2022-09-01T08:30:07.131Z,19.8
2022-09-01T08:45:02.936Z,20.0
2022-09-01T09:00:06.710Z,20.1
2022-09-01T09:15:04.398Z,20.2
2022-09-01T09:30:11.699Z,20.3
2022-09-01T09:45:06.313Z,20.4
2022-09-01T10:00:07.451Z,20.4
2022-09-01T10:15:05.567Z,20.5
2022-09-01T10:30:18.068Z,20.5
2022-09-01T10:45:08.139Z,20.6
2022-09-01T11:00:34.739Z,20.6
2022-09-01T11:15:03.931Z,20.8
2022-09-01T11:30:06.707Z,20.8
2022-09-01T11:45:04.067Z,20.9
2022-09-01T12:00:07.893Z,21.0
2022-09-01T12:15:05.940Z,21.1
2022-09-01T12:30:05.842Z,21.1
2022-09-01T12:45:03.074Z,21.2
2022-09-01T13:00:05.250Z,21.3
2022-09-01T13:15:04.434Z,21.4
2022-09-01T13:30:09.070Z,21.5
2022-09-01T13:45:05.062Z,21.6
2022-09-01T14:00:06.717Z,21.6
2022-09-01T14:15:17.953Z,21.7
2022-09-01T14:30:06.508Z,21.7
2022-09-01T14:45:02.758Z,21.8
2022-09-01T15:00:10.454Z,21.8
2022-09-01T15:15:05.165Z,21.7
2022-09-01T15:30:12.493Z,21.6
2022-09-01T15:45:05.358Z,21.6
2022-09-01T16:00:08.721Z,21.6
2022-09-01T16:15:04.470Z,21.5
2022-09-01T16:30:06.852Z,21.5
2022-09-01T16:45:03.004Z,21.5
2022-09-01T17:00:12.501Z,21.5
2022-09-01T17:15:05.087Z,21.5
2022-09-01T17:30:04.366Z,21.4
2022-09-01T17:45:03.459Z,21.3
2022-09-01T18:00:10.938Z,21.2
2022-09-01T18:15:02.016Z,21.0
2022-09-01T18:30:06.902Z,21
2022-09-01T18:45:03.968Z,20.9
2022-09-01T19:00:12.592Z,20.8
2022-09-01T19:15:05.537Z,20.7
2022-09-01T19:30:06.208Z,20.6
2022-09-01T19:45:05.185Z,20.5
2022-09-01T20:00:06.764Z,20.4
2022-09-01T20:15:04.653Z,20.3
2022-09-01T20:30:06.617Z,20.2
2022-09-01T20:45:02.985Z,20.1
2022-09-01T21:00:10.136Z,20.1
2022-09-01T21:15:03.535Z,20.0
2022-09-01T21:30:07.857Z,20
2022-09-01T21:45:04.523Z,19.9
2022-09-01T22:00:09.115Z,19.8
2022-09-01T22:15:03.164Z,19.8
2022-09-01T22:30:06.221Z,19.7
2022-09-01T22:45:02.842Z,19.7
2022-09-01T23:00:08.501Z,19.6
2022-09-01T23:15:03.777Z,19.5
2022-09-01T23:30:05.993Z,19.5
2022-09-01T23:45:03.568Z,19.5
